Time;durP1;ratioP1;P1;durP2;ratioP2;P2;SDS_P1;SDS_P2;PMS_P1;PMS_P2;Temp;Humidity;BMP_temperature;BMP_pressure;BME280_temperature;BME280_humidity;BME280_pressure;Samples;Min_cycle;Max_cycle;Signal;HPM_P1;HPM_P2
2022/07/15 00:00:24;;;;;;;2.17;0.20;;;22.30;52.60;;;;;;5112761;28;20050;-77
2022/07/15 00:02:50;;;;;;;0.70;0.20;;;22.20;52.60;;;;;;5113794;28;20114;-76
2022/07/15 00:05:16;;;;;;;0.90;0.30;;;22.20;52.60;;;;;;5112389;28;20039;-77
2022/07/15 00:07:41;;;;;;;1.63;0.38;;;22.20;52.60;;;;;;5113603;28;20136;-78
2022/07/15 00:10:15;;;;;;;1.98;0.22;;;22.20;52.60;;;;;;5112327;28;20394;-77
2022/07/15 00:15:23;;;;;;;1.40;0.20;;;22.20;52.60;;;;;;5130335;27;20428;-77
2022/07/15 00:17:49;;;;;;;1.02;0.30;;;22.20;52.60;;;;;;5128929;28;20536;-76
2022/07/15 00:20:15;;;;;;;1.27;0.30;;;22.20;52.60;;;;;;5129033;28;20035;-77
2022/07/15 00:22:42;;;;;;;0.90;0.22;;;22.20;52.50;;;;;;5128978;27;20078;-76
2022/07/15 00:25:09;;;;;;;1.50;0.20;;;22.20;52.60;;;;;;5130157;27;20175;-76
2022/07/15 00:27:36;;;;;;;1.08;0.20;;;22.20;52.50;;;;;;5128873;28;20043;-76
2022/07/15 00:30:03;;;;;;;2.15;0.20;;;22.20;52.50;;;;;;5130069;27;20039;-76
2022/07/15 00:32:29;;;;;;;1.02;0.20;;;22.20;52.50;;;;;;5145925;27;20043;-76
2022/07/15 00:34:55;;;;;;;0.50;0.30;;;22.10;53.30;;;;;;5128584;27;20044;-77
2022/07/15 00:37:21;;;;;;;0.73;0.20;;;22.10;52.50;;;;;;5128858;28;20066;-76
2022/07/15 00:39:46;;;;;;;1.23;0.20;;;22.10;52.50;;;;;;5128800;28;20031;-76
2022/07/15 00:42:43;;;;;;;1.02;0.20;;;22.10;52.50;;;;;;5128877;27;20387;-76
2022/07/15 00:45:00;;;;;;;2.63;0.43;;;22.10;52.50;;;;;;5128230;27;20130;-77
2022/07/15 00:47:26;;;;;;;1.35;0.40;;;22.10;52.50;;;;;;5128765;28;20044;-76
2022/07/15 00:49:52;;;;;;;1.35;0.20;;;22.10;52.50;;;;;;5128333;28;20046;-76
2022/07/15 00:52:20;;;;;;;0.82;0.10;;;22.10;52.50;;;;;;5129840;28;20035;-76
2022/07/15 00:54:50;;;;;;;1.58;0.30;;;22.10;52.50;;;;;;5111492;28;20039;-77
2022/07/15 00:57:22;;;;;;;1.38;0.20;;;22.10;52.60;;;;;;5129616;27;20401;-77
2022/07/15 00:59:48;;;;;;;1.17;0.25;;;22.10;52.50;;;;;;5128351;28;20039;-76
2022/07/15 01:02:14;;;;;;;1.48;0.20;;;22.10;52.50;;;;;;5128211;28;20084;-76
2022/07/15 01:04:40;;;;;;;1.23;0.20;;;22.10;52.60;;;;;;5129504;28;20039;-76
2022/07/15 01:07:06;;;;;;;1.90;0.40;;;22.10;52.60;;;;;;5128109;28;20039;-76
2022/07/15 01:09:31;;;;;;;0.70;0.17;;;22.10;52.60;;;;;;5128332;28;20051;-76
2022/07/15 01:11:58;;;;;;;1.38;0.40;;;22.10;52.60;;;;;;5127900;27;20122;-76
2022/07/15 01:14:24;;;;;;;2.20;0.20;;;22.00;52.60;;;;;;5127582;28;20051;-76
2022/07/15 01:16:50;;;;;;;1.88;0.38;;;22.00;52.60;;;;;;5145322;27;20040;-76
2022/07/15 01:19:15;;;;;;;1.25;0.20;;;22.00;52.70;;;;;;5128145;28;20423;-76
2022/07/15 01:21:41;;;;;;;1.17;0.13;;;22.00;52.60;;;;;;5129185;27;20031;-77
2022/07/15 01:24:07;;;;;;;0.88;0.20;;;22.00;52.70;;;;;;5127829;28;20459;-76
2022/07/15 01:26:32;;;;;;;1.88;0.10;;;22.00;52.70;;;;;;5114624;28;20104;-76
2022/07/15 01:29:01;;;;;;;1.02;0.35;;;22.00;52.70;;;;;;5114006;28;20036;-76
2022/07/15 01:31:27;;;;;;;1.55;0.38;;;22.00;52.70;;;;;;5113801;28;20035;-77
2022/07/15 01:33:54;;;;;;;1.45;0.10;;;22.00;52.80;;;;;;5113989;28;20049;-77
2022/07/15 01:36:20;;;;;;;0.90;0.20;;;21.90;52.70;;;;;;5113833;28;20538;-76
2022/07/15 01:38:48;;;;;;;0.80;0.20;;;22.00;52.80;;;;;;5113831;28;20039;-75
2022/07/15 01:41:14;;;;;;;1.52;0.32;;;21.90;52.80;;;;;;5115051;28;20043;-76
2022/07/15 01:43:39;;;;;;;1.23;0.20;;;22.00;52.80;;;;;;5114037;28;20515;-76
2022/07/15 01:46:05;;;;;;;1.23;0.30;;;21.90;52.80;;;;;;5113625;28;20040;-76
2022/07/15 01:51:19;;;;;;;2.08;0.20;;;21.90;52.80;;;;;;5113580;28;20051;-76
2022/07/15 01:53:45;;;;;;;0.82;0.30;;;21.90;52.80;;;;;;5113434;28;20426;-77
2022/07/15 01:56:11;;;;;;;1.60;0.32;;;21.90;52.80;;;;;;5130627;27;20043;-76
2022/07/15 01:58:36;;;;;;;1.95;0.32;;;21.90;52.90;;;;;;5113533;28;20039;-76
2022/07/15 02:01:02;;;;;;;1.38;0.20;;;21.90;52.90;;;;;;5113412;28;20175;-76
2022/07/15 02:03:28;;;;;;;2.65;0.32;;;21.90;52.90;;;;;;5114538;28;20119;-76
2022/07/15 02:05:53;;;;;;;1.42;0.30;;;21.90;52.90;;;;;;5114680;28;20043;-76
2022/07/15 02:08:19;;;;;;;2.10;0.30;;;21.90;52.80;;;;;;5113270;28;20043;-76
2022/07/15 02:10:45;;;;;;;2.50;0.20;;;21.90;52.90;;;;;;5113390;28;20042;-76
2022/07/15 02:13:12;;;;;;;1.00;0.30;;;21.90;52.90;;;;;;5113004;28;20441;-76
2022/07/15 02:15:39;;;;;;;0.90;0.10;;;21.90;52.90;;;;;;5113385;28;20105;-76
2022/07/15 02:18:06;;;;;;;2.15;0.28;;;21.90;52.90;;;;;;5113382;28;20089;-76
2022/07/15 02:20:32;;;;;;;0.77;0.30;;;21.90;52.90;;;;;;5114421;28;20092;-76
2022/07/15 02:22:59;;;;;;;1.83;0.20;;;21.90;52.90;;;;;;5113259;28;20050;-76
2022/07/15 02:25:26;;;;;;;1.33;0.38;;;21.90;52.90;;;;;;5113225;28;20118;-76
2022/07/15 02:27:56;;;;;;;1.83;0.40;;;21.90;52.90;;;;;;5113090;28;20036;-76
2022/07/15 02:30:24;;;;;;;0.95;0.50;;;21.90;52.90;;;;;;5114154;28;20027;-76
2022/07/15 02:32:50;;;;;;;1.13;0.47;;;21.80;52.90;;;;;;5112923;28;20119;-76
2022/07/15 02:35:16;;;;;;;0.80;0.10;;;21.80;52.90;;;;;;5112769;28;20075;-76
2022/07/15 02:37:45;;;;;;;2.42;0.43;;;21.80;52.90;;;;;;5111690;28;20071;-76
2022/07/15 02:40:11;;;;;;;1.92;0.20;;;21.80;52.90;;;;;;5112837;28;20038;-76
2022/07/15 02:42:37;;;;;;;1.15;0.30;;;21.80;52.90;;;;;;5112869;28;20039;-76
2022/07/15 02:45:03;;;;;;;2.17;0.30;;;21.80;52.90;;;;;;5113733;28;20123;-76
2022/07/15 02:47:29;;;;;;;1.05;0.20;;;21.80;52.90;;;;;;5129681;27;20079;-76
2022/07/15 02:49:55;;;;;;;1.80;0.20;;;21.80;52.90;;;;;;5129505;27;20078;-76
2022/07/15 02:52:23;;;;;;;1.73;0.40;;;21.80;53.00;;;;;;5112442;28;20039;-76
2022/07/15 02:54:49;;;;;;;1.30;0.17;;;21.80;52.90;;;;;;5112167;28;20084;-76
2022/07/15 02:57:15;;;;;;;2.00;0.20;;;21.80;53.00;;;;;;5112574;28;20050;-76
2022/07/15 02:59:41;;;;;;;0.70;0.20;;;21.80;53.00;;;;;;5129529;27;20383;-76
2022/07/15 03:02:06;;;;;;;1.63;0.30;;;21.80;53.00;;;;;;5112407;28;20123;-76
2022/07/15 03:04:32;;;;;;;0.40;0.10;;;21.80;53.00;;;;;;5112739;28;20090;-76
2022/07/15 03:07:00;;;;;;;1.52;0.20;;;21.80;53.00;;;;;;5113120;28;20627;-76
2022/07/15 03:09:26;;;;;;;2.17;0.30;;;21.80;53.00;;;;;;5112238;28;20112;-76
2022/07/15 03:11:52;;;;;;;1.13;0.20;;;21.70;53.00;;;;;;5112317;28;20118;-76
2022/07/15 03:14:17;;;;;;;1.65;0.20;;;21.70;53.00;;;;;;5111442;28;20062;-76
2022/07/15 03:16:43;;;;;;;1.83;0.22;;;21.70;53.00;;;;;;5111813;28;20040;-76
2022/07/15 03:19:09;;;;;;;3.38;0.50;;;21.70;53.00;;;;;;5111923;28;20036;-76
2022/07/15 03:21:34;;;;;;;2.03;0.47;;;21.70;53.00;;;;;;5111413;28;20047;-76
2022/07/15 03:24:00;;;;;;;0.93;0.45;;;21.70;53.00;;;;;;5111747;28;20376;-76
2022/07/15 03:26:25;;;;;;;1.73;0.20;;;21.70;53.00;;;;;;5111878;28;20043;-72
2022/07/15 03:28:51;;;;;;;1.13;0.22;;;21.70;53.00;;;;;;5113234;28;20039;-76
2022/07/15 03:31:17;;;;;;;1.45;0.40;;;21.70;53.00;;;;;;5111827;28;20048;-77
2022/07/15 03:33:43;;;;;;;1.95;0.22;;;21.70;53.10;;;;;;5111670;28;20486;-76
2022/07/15 03:36:08;;;;;;;1.63;0.20;;;21.70;53.10;;;;;;5112897;28;20036;-76
2022/07/15 03:38:34;;;;;;;0.80;0.35;;;21.70;53.10;;;;;;5111788;28;20036;-77
2022/07/15 03:41:00;;;;;;;1.17;0.22;;;21.70;53.10;;;;;;5111617;28;20426;-76
2022/07/15 03:43:29;;;;;;;1.98;0.20;;;21.70;53.10;;;;;;5112756;28;20098;-76
2022/07/15 03:45:55;;;;;;;1.63;0.20;;;21.70;53.10;;;;;;5112023;28;20039;-76
2022/07/15 03:48:24;;;;;;;0.50;0.10;;;21.60;53.00;;;;;;5111392;28;20088;-76
2022/07/15 03:50:49;;;;;;;0.80;0.17;;;21.60;53.10;;;;;;5111630;28;20387;-76
2022/07/15 03:53:15;;;;;;;1.17;0.30;;;21.70;53.10;;;;;;5111275;28;20043;-76
2022/07/15 03:55:40;;;;;;;0.63;0.20;;;21.60;53.00;;;;;;5111496;28;20071;-76
2022/07/15 03:58:09;;;;;;;1.75;0.22;;;21.60;53.10;;;;;;5112605;28;20642;-77
2022/07/15 04:00:34;;;;;;;1.42;0.20;;;21.60;53.10;;;;;;5112414;28;20430;-76
2022/07/15 04:03:00;;;;;;;1.33;0.20;;;21.60;53.10;;;;;;5111181;28;20096;-76
2022/07/15 04:05:26;;;;;;;2.25;0.30;;;21.60;53.10;;;;;;5111230;28;20112;-77
2022/07/15 04:07:52;;;;;;;1.35;0.20;;;21.60;53.10;;;;;;5112427;28;20081;-76
2022/07/15 04:10:17;;;;;;;0.95;0.20;;;21.60;53.20;;;;;;5111191;28;20126;-76
2022/07/15 04:12:43;;;;;;;2.45;0.22;;;21.60;53.10;;;;;;5111105;28;20047;-76
2022/07/15 04:15:09;;;;;;;0.43;0.10;;;21.60;53.10;;;;;;5110752;28;20052;-76
2022/07/15 04:17:35;;;;;;;1.33;0.20;;;21.60;53.20;;;;;;5111260;28;20047;-76
2022/07/15 04:20:01;;;;;;;2.17;0.22;;;21.60;53.20;;;;;;5111368;28;20391;-76
2022/07/15 04:22:26;;;;;;;1.40;0.30;;;21.60;53.20;;;;;;5111315;28;20467;-76
2022/07/15 04:24:58;;;;;;;0.32;0.10;;;21.60;53.30;;;;;;5111031;28;20126;-77
2022/07/15 04:27:24;;;;;;;1.83;0.20;;;21.60;53.30;;;;;;5110964;28;20491;-77
2022/07/15 04:29:49;;;;;;;1.52;0.20;;;21.50;53.20;;;;;;5110832;28;20032;-76
2022/07/15 04:32:15;;;;;;;2.08;0.30;;;21.50;53.20;;;;;;5111158;28;20039;-76
2022/07/15 04:34:41;;;;;;;2.45;0.52;;;21.50;53.20;;;;;;5110959;28;20031;-76
2022/07/15 04:37:06;;;;;;;1.10;0.30;;;21.50;53.20;;;;;;5110782;28;20402;-76
2022/07/15 04:39:32;;;;;;;1.65;0.20;;;21.50;53.20;;;;;;5112166;28;20039;-76
2022/07/15 04:41:57;;;;;;;1.23;0.20;;;21.50;53.20;;;;;;5112103;28;20046;-76
2022/07/15 04:44:23;;;;;;;0.88;0.20;;;21.50;53.20;;;;;;5110737;28;20093;-76
2022/07/15 04:46:52;;;;;;;2.40;0.30;;;21.50;53.30;;;;;;5111038;28;20047;-76
2022/07/15 04:52:03;;;;;;;2.15;0.25;;;21.50;53.30;;;;;;5110578;28;20051;-75
2022/07/15 04:54:29;;;;;;;1.58;0.20;;;21.50;53.30;;;;;;5110613;28;20091;-75
2022/07/15 04:56:54;;;;;;;1.58;0.30;;;21.50;53.30;;;;;;5110728;28;20039;-75
2022/07/15 04:59:20;;;;;;;1.02;0.10;;;21.50;53.30;;;;;;5110840;28;20043;-76
2022/07/15 05:01:45;;;;;;;2.22;0.22;;;21.50;53.30;;;;;;5113840;28;20403;-76
2022/07/15 05:04:11;;;;;;;1.83;0.30;;;21.50;53.40;;;;;;5114395;28;20043;-76
2022/07/15 05:06:37;;;;;;;1.02;0.10;;;21.50;53.30;;;;;;5115806;28;20047;-76
2022/07/15 05:09:03;;;;;;;0.75;0.20;;;21.50;53.30;;;;;;5114433;28;20513;-76
2022/07/15 05:11:28;;;;;;;1.45;0.40;;;21.50;53.40;;;;;;5114381;28;20044;-77
2022/07/15 05:13:54;;;;;;;1.20;0.10;;;21.40;53.30;;;;;;5114041;28;20142;-77
2022/07/15 05:16:20;;;;;;;1.33;0.40;;;21.50;53.40;;;;;;5114258;28;20088;-76
2022/07/15 05:18:45;;;;;;;0.77;0.20;;;21.50;53.40;;;;;;5114504;28;20486;-76
2022/07/15 05:21:11;;;;;;;0.65;0.10;;;21.40;53.40;;;;;;5115855;28;20039;-76
2022/07/15 05:23:37;;;;;;;0.73;0.30;;;21.40;53.40;;;;;;5114087;28;20048;-76
2022/07/15 05:26:02;;;;;;;1.98;0.20;;;21.40;53.30;;;;;;5114118;28;20054;-76
2022/07/15 05:28:28;;;;;;;1.40;0.55;;;21.40;53.40;;;;;;5114275;28;20051;-76
2022/07/15 05:30:54;;;;;;;0.90;0.20;;;21.40;53.40;;;;;;5113935;28;20521;-76
2022/07/15 05:33:19;;;;;;;2.42;0.38;;;21.40;53.30;;;;;;5113859;28;20078;-76
2022/07/15 05:35:45;;;;;;;1.67;0.20;;;21.40;53.40;;;;;;5113401;28;20062;-76
2022/07/15 05:38:11;;;;;;;1.20;0.20;;;21.40;53.30;;;;;;5113079;28;20046;-75
2022/07/15 05:40:37;;;;;;;1.70;0.20;;;21.40;53.30;;;;;;5112597;28;20047;-72
2022/07/15 05:43:02;;;;;;;1.75;0.28;;;21.40;53.30;;;;;;5113768;28;20214;-72
2022/07/15 05:45:28;;;;;;;2.05;0.20;;;21.40;53.20;;;;;;5113002;28;20047;-72
2022/07/15 05:47:54;;;;;;;3.10;0.20;;;21.40;53.20;;;;;;5111436;28;20043;-73
2022/07/15 05:50:22;;;;;;;1.67;0.30;;;21.50;53.10;;;;;;5111985;28;20031;-73
2022/07/15 05:52:48;;;;;;;1.40;0.17;;;21.50;53.00;;;;;;5111864;28;20034;-73
2022/07/15 05:55:14;;;;;;;1.77;0.13;;;21.50;53.00;;;;;;5112165;28;20429;-74
2022/07/15 05:57:39;;;;;;;2.13;0.17;;;21.50;52.90;;;;;;5111461;28;20086;-72
2022/07/15 06:00:07;;;;;;;1.33;0.20;;;21.50;52.90;;;;;;5111917;28;20035;-70
2022/07/15 06:02:32;;;;;;;1.92;0.20;;;21.50;52.80;;;;;;5112662;28;20039;-73
2022/07/15 06:04:58;;;;;;;1.27;0.10;;;21.50;52.80;;;;;;5110879;28;20558;-72
2022/07/15 06:07:24;;;;;;;3.67;0.30;;;21.50;52.80;;;;;;5109361;28;20035;-73
2022/07/15 06:09:50;;;;;;;1.27;0.20;;;21.50;52.80;;;;;;5110054;28;20046;-74
2022/07/15 06:12:17;;;;;;;1.38;0.10;;;21.60;52.80;;;;;;5107914;27;20044;-72
2022/07/15 06:14:43;;;;;;;3.28;0.17;;;21.60;52.80;;;;;;5104116;28;20472;-74
2022/07/15 06:17:08;;;;;;;4.43;0.20;;;21.60;52.80;;;;;;5105313;28;20046;-75
2022/07/15 06:19:34;;;;;;;1.23;0.20;;;21.60;52.80;;;;;;5089113;28;20032;-76
2022/07/15 06:22:00;;;;;;;2.38;0.20;;;21.60;52.70;;;;;;5107587;28;20123;-73
2022/07/15 06:24:26;;;;;;;2.85;0.30;;;21.60;52.70;;;;;;5109756;28;20047;-73
2022/07/15 06:26:52;;;;;;;2.47;0.25;;;21.60;52.60;;;;;;5109530;28;20040;-70
2022/07/15 06:29:17;;;;;;;1.35;0.10;;;21.60;52.60;;;;;;5110933;28;20039;-72
2022/07/15 06:31:43;;;;;;;3.83;0.10;;;21.60;52.50;;;;;;5107225;28;20039;-71
2022/07/15 06:34:09;;;;;;;1.25;0.30;;;21.60;52.50;;;;;;5107537;28;20044;-72
2022/07/15 06:36:36;;;;;;;5.93;0.20;;;21.60;52.50;;;;;;5108126;28;20039;-71
2022/07/15 06:39:02;;;;;;;1.63;0.20;;;21.60;52.50;;;;;;5107181;28;20032;-71
2022/07/15 06:41:28;;;;;;;1.02;0.20;;;21.60;52.40;;;;;;5099471;28;20125;-73
2022/07/15 06:43:53;;;;;;;2.88;0.32;;;21.60;52.30;;;;;;5091400;28;20422;-71
2022/07/15 06:46:19;;;;;;;1.02;0.10;;;21.60;52.30;;;;;;5096111;28;20056;-72
2022/07/15 06:48:44;;;;;;;4.43;0.20;;;21.60;52.30;;;;;;5099896;28;20051;-71
2022/07/15 06:51:11;;;;;;;4.47;0.20;;;21.60;52.30;;;;;;5100859;28;20039;-68
2022/07/15 06:53:37;;;;;;;2.03;0.13;;;21.60;52.40;;;;;;5097849;28;20039;-71
2022/07/15 06:56:05;;;;;;;5.25;0.30;;;21.60;52.30;;;;;;5095331;28;20040;-75
2022/07/15 06:58:34;;;;;;;4.88;0.20;;;21.60;52.50;;;;;;5095608;28;20041;-71
2022/07/15 07:00:59;;;;;;;7.43;0.50;;;21.60;52.50;;;;;;5093564;28;20043;-75
2022/07/15 07:03:25;;;;;;;3.22;0.20;;;21.60;52.50;;;;;;5098568;28;20131;-72
2022/07/15 07:05:51;;;;;;;2.25;0.20;;;21.70;52.50;;;;;;5096454;28;20126;-72
2022/07/15 07:08:17;;;;;;;3.80;0.60;;;21.70;52.50;;;;;;5092617;28;20551;-75
2022/07/15 07:10:43;;;;;;;3.92;0.30;;;21.70;52.30;;;;;;5102487;28;20054;-74
2022/07/15 07:13:09;;;;;;;2.05;0.38;;;21.70;52.30;;;;;;5114253;27;20491;-72
2022/07/15 07:15:35;;;;;;;6.05;0.20;;;21.70;52.20;;;;;;5109979;28;20054;-73
2022/07/15 07:18:01;;;;;;;5.57;0.35;;;21.70;52.10;;;;;;5109991;28;20039;-74
2022/07/15 07:20:27;;;;;;;5.35;0.17;;;21.70;52.00;;;;;;5107446;28;20360;-71
2022/07/15 07:22:53;;;;;;;5.40;0.20;;;21.80;51.90;;;;;;5100867;28;20038;-73
2022/07/15 07:25:18;;;;;;;2.63;0.20;;;21.80;51.80;;;;;;5093671;28;20031;-73
2022/07/15 07:27:44;;;;;;;2.03;0.30;;;21.80;51.80;;;;;;5101138;28;20498;-73
2022/07/15 07:30:10;;;;;;;3.35;0.20;;;21.80;51.90;;;;;;5109884;27;20562;-78
2022/07/15 07:32:36;;;;;;;4.57;0.43;;;21.80;51.80;;;;;;5112626;27;20111;-76
2022/07/15 07:35:01;;;;;;;3.10;0.20;;;21.80;51.80;;;;;;5095427;28;20111;-74
2022/07/15 07:37:27;;;;;;;5.10;0.10;;;21.80;51.80;;;;;;5090476;28;20053;-70
2022/07/15 07:39:53;;;;;;;3.10;0.20;;;21.80;51.90;;;;;;5091348;28;20047;-75
2022/07/15 07:42:22;;;;;;;4.05;0.10;;;21.80;51.80;;;;;;5095030;28;20076;-73
2022/07/15 07:44:47;;;;;;;1.65;0.10;;;21.80;51.80;;;;;;5097089;27;20039;-74
2022/07/15 07:47:13;;;;;;;5.47;0.43;;;21.90;51.90;;;;;;5098345;28;20543;-71
2022/07/15 07:49:41;;;;;;;2.20;0.10;;;21.90;52.10;;;;;;5093817;28;20036;-73
2022/07/15 07:52:07;;;;;;;4.68;0.10;;;21.90;52.00;;;;;;5091353;28;20040;-74
2022/07/15 07:54:35;;;;;;;6.22;0.30;;;21.90;51.90;;;;;;5089182;28;20031;-76
2022/07/15 07:57:00;;;;;;;3.90;0.10;;;21.90;52.00;;;;;;5095944;27;20050;-79
2022/07/15 07:59:26;;;;;;;6.22;0.20;;;22.00;52.00;;;;;;5107009;28;20036;-75
2022/07/15 08:01:52;;;;;;;6.93;0.38;;;22.00;51.90;;;;;;5108217;28;20040;-79
2022/07/15 08:04:17;;;;;;;3.58;0.10;;;22.00;51.80;;;;;;5109735;28;20054;-77
2022/07/15 08:06:43;;;;;;;1.52;0.10;;;22.00;51.70;;;;;;5108075;28;20039;-75
2022/07/15 08:09:09;;;;;;;3.10;0.00;;;22.00;51.60;;;;;;5110127;28;20475;-77
2022/07/15 08:11:34;;;;;;;3.25;0.10;;;22.00;51.50;;;;;;5105070;28;20132;-77
2022/07/15 08:14:00;;;;;;;2.67;0.10;;;22.00;51.50;;;;;;5098871;28;20585;-76
2022/07/15 08:16:27;;;;;;;2.80;0.08;;;22.00;51.40;;;;;;5104816;28;20032;-72
2022/07/15 08:18:53;;;;;;;5.45;0.88;;;22.00;51.50;;;;;;5106517;28;20111;-76
2022/07/15 08:21:18;;;;;;;7.82;0.22;;;22.10;51.70;;;;;;5106322;28;20127;-71
2022/07/15 08:23:44;;;;;;;5.88;0.30;;;22.10;51.70;;;;;;5105863;28;20038;-73
2022/07/15 08:26:11;;;;;;;2.20;0.10;;;22.10;51.70;;;;;;5106157;28;20039;-75
2022/07/15 08:28:36;;;;;;;4.65;0.25;;;22.10;51.50;;;;;;5107723;28;20040;-74
2022/07/15 08:31:02;;;;;;;4.38;0.30;;;22.10;51.30;;;;;;5107351;28;20047;-74
2022/07/15 08:33:31;;;;;;;4.95;0.13;;;22.10;51.30;;;;;;5107838;28;20036;-76
2022/07/15 08:35:56;;;;;;;0.75;0.08;;;22.20;51.30;;;;;;5109703;28;20035;-76
2022/07/15 08:38:22;;;;;;;1.65;0.05;;;22.20;51.20;;;;;;5110652;28;20035;-75
2022/07/15 08:40:50;;;;;;;2.05;0.10;;;22.20;51.10;;;;;;5110922;28;20487;-74
2022/07/15 08:43:16;;;;;;;1.40;0.10;;;22.20;51.00;;;;;;5112419;28;20043;-74
2022/07/15 08:45:43;;;;;;;4.63;0.10;;;22.10;50.90;;;;;;5112376;28;20093;-75
2022/07/15 08:48:13;;;;;;;1.67;0.00;;;22.10;50.70;;;;;;5112938;28;20066;-74
2022/07/15 08:50:41;;;;;;;1.55;0.10;;;22.20;50.70;;;;;;5112589;28;20418;-74
2022/07/15 08:53:07;;;;;;;5.38;0.10;;;22.10;50.60;;;;;;5113288;28;20056;-75
2022/07/15 08:55:32;;;;;;;3.17;0.10;;;22.10;50.50;;;;;;5113868;28;20044;-75
2022/07/15 08:57:58;;;;;;;2.33;0.10;;;22.10;50.40;;;;;;5114772;28;20089;-74
2022/07/15 09:00:28;;;;;;;2.53;0.08;;;22.10;50.40;;;;;;5111692;28;20475;-74
2022/07/15 09:02:56;;;;;;;2.45;0.10;;;22.10;50.30;;;;;;5110003;28;20483;-74
2022/07/15 09:08:06;;;;;;;9.65;0.20;;;22.10;50.30;;;;;;5127863;27;20780;-73
2022/07/15 09:10:54;;;;;;;3.33;0.10;;;22.20;50.50;;;;;;5124945;27;20098;-74
2022/07/15 09:18:44;;;;;;;7.40;0.10;;;22.20;50.40;;;;;;5107663;27;20388;-70
2022/07/15 09:24:17;;;;;;;7.68;0.20;;;22.40;49.90;;;;;;5087641;27;20417;-70
2022/07/15 09:26:45;;;;;;;6.93;0.73;;;22.50;49.50;;;;;;5057533;28;20125;-70
2022/07/15 09:35:04;;;;;;;15.50;0.30;;;22.50;49.50;;;;;;5072285;28;20040;-74
2022/07/15 09:37:30;;;;;;;7.20;0.32;;;22.60;49.60;;;;;;5078339;28;20380;-74
2022/07/15 09:39:57;;;;;;;9.23;0.30;;;22.70;49.60;;;;;;5087755;28;20032;-74
2022/07/15 09:42:23;;;;;;;8.07;0.28;;;22.70;49.50;;;;;;5069154;28;20048;-73
2022/07/15 09:44:50;;;;;;;5.40;0.20;;;22.80;49.10;;;;;;5048794;28;20597;-74
2022/07/15 09:47:18;;;;;;;5.57;0.15;;;22.80;48.80;;;;;;5056237;28;20032;-71
2022/07/15 09:49:44;;;;;;;6.20;0.20;;;22.80;48.90;;;;;;5074409;28;20041;-74
2022/07/15 09:52:14;;;;;;;4.57;0.20;;;22.80;48.90;;;;;;5053771;28;20468;-73
2022/07/15 09:54:42;;;;;;;6.23;0.57;;;22.90;48.70;;;;;;5055550;28;20123;-73
2022/07/15 09:57:11;;;;;;;6.60;0.10;;;22.90;48.70;;;;;;5055153;28;20044;-71
2022/07/15 09:59:37;;;;;;;11.50;0.40;;;22.90;48.60;;;;;;5057608;28;20128;-71
2022/07/15 10:02:03;;;;;;;5.25;0.20;;;22.90;48.70;;;;;;5052461;28;20033;-71
2022/07/15 10:04:30;;;;;;;3.95;0.17;;;22.90;48.70;;;;;;5058966;28;20039;-71
2022/07/15 10:06:59;;;;;;;4.00;0.20;;;22.90;48.70;;;;;;5053163;28;20045;-71
2022/07/15 10:09:29;;;;;;;7.63;0.35;;;22.80;48.50;;;;;;5087619;28;20045;-71
2022/07/15 10:12:02;;;;;;;3.58;0.20;;;22.80;48.30;;;;;;5082412;28;20083;-72
2022/07/15 10:31:44;;;;;;;5.82;0.20;;;22.70;48.00;;;;;;5105747;27;20464;-72
2022/07/15 10:39:55;;;;;;;8.07;0.40;;;22.70;48.00;;;;;;5106540;27;20415;-74
2022/07/15 10:42:22;;;;;;;3.30;0.00;;;22.70;47.60;;;;;;5069876;28;20626;-74
2022/07/15 10:45:06;;;;;;;5.10;0.40;;;22.80;47.90;;;;;;5068259;28;20089;-74
2022/07/15 10:47:32;;;;;;;0.77;0.10;;;22.80;47.90;;;;;;5073699;28;20036;-74
2022/07/15 10:49:58;;;;;;;5.38;0.10;;;22.70;47.70;;;;;;5086602;28;20429;-74
2022/07/15 10:52:32;;;;;;;3.47;0.10;;;22.80;47.80;;;;;;5070065;28;20036;-74
2022/07/15 11:00:31;;;;;;;4.72;0.10;;;22.80;47.80;;;;;;5089684;27;20801;-71
2022/07/15 11:03:17;;;;;;;5.47;0.10;;;22.80;47.90;;;;;;5088508;28;20044;-73
2022/07/15 11:08:47;;;;;;;2.38;0.00;;;22.80;47.80;;;;;;5085033;28;20385;-73
2022/07/15 11:13:53;;;;;;;6.15;0.20;;;22.80;47.60;;;;;;5127356;27;20346;-72
2022/07/15 11:16:21;;;;;;;8.18;0.20;;;22.80;47.90;;;;;;5127447;28;20092;-72
2022/07/15 11:18:51;;;;;;;1.83;0.10;;;22.80;48.10;;;;;;5124215;28;20814;-72
2022/07/15 11:21:19;;;;;;;6.07;0.10;;;22.80;48.00;;;;;;5124935;28;20035;-72
2022/07/15 11:23:46;;;;;;;4.53;0.57;;;22.80;47.90;;;;;;5126802;28;20050;-72
2022/07/15 11:26:13;;;;;;;1.92;0.10;;;22.80;47.90;;;;;;5125766;28;20047;-72
2022/07/15 11:28:47;;;;;;;0.98;0.10;;;22.80;48.00;;;;;;5128982;27;20543;-72
2022/07/15 11:31:13;;;;;;;3.25;0.10;;;22.80;48.00;;;;;;5126681;28;20084;-72
2022/07/15 11:33:39;;;;;;;1.27;0.20;;;22.80;47.90;;;;;;5125617;28;20035;-72
2022/07/15 11:36:05;;;;;;;1.92;0.10;;;22.80;47.80;;;;;;5126156;28;20061;-72
2022/07/15 11:38:37;;;;;;;2.88;0.10;;;22.70;47.70;;;;;;5125443;28;20487;-71
2022/07/15 11:44:31;;;;;;;0.80;0.10;;;22.70;47.90;;;;;;5126252;28;20083;-71
2022/07/15 11:46:46;;;;;;;0.57;0.10;;;22.70;47.90;;;;;;5123974;28;20059;-72
2022/07/15 11:49:25;;;;;;;3.65;0.10;;;22.70;48.00;;;;;;5126353;28;20051;-74
2022/07/15 11:51:52;;;;;;;2.05;0.10;;;22.70;47.80;;;;;;5127542;27;20043;-73
2022/07/15 11:54:18;;;;;;;3.47;0.28;;;22.80;47.90;;;;;;5125295;27;20103;-73
2022/07/15 11:56:53;;;;;;;0.22;0.00;;;22.80;48.00;;;;;;5125545;28;20039;-72
2022/07/15 11:59:19;;;;;;;1.30;0.50;;;22.80;48.10;;;;;;5122823;27;20027;-71
2022/07/15 12:01:45;;;;;;;3.45;0.10;;;22.80;48.10;;;;;;5134105;27;20459;-73
2022/07/15 12:04:11;;;;;;;3.45;0.10;;;22.80;48.10;;;;;;5126271;28;20114;-70
2022/07/15 12:06:37;;;;;;;4.20;0.30;;;22.80;48.10;;;;;;5123845;28;20043;-73
2022/07/15 12:09:07;;;;;;;3.13;0.00;;;22.80;48.10;;;;;;5125291;28;20087;-71
2022/07/15 12:14:20;;;;;;;3.78;0.10;;;22.80;47.50;;;;;;5084684;28;20414;-73
2022/07/15 12:16:50;;;;;;;3.58;0.13;;;22.90;47.70;;;;;;5073843;28;20135;-75
2022/07/15 12:21:58;;;;;;;2.38;0.03;;;22.90;47.90;;;;;;5128010;27;20349;-73
2022/07/15 12:24:26;;;;;;;4.97;0.30;;;23.00;48.10;;;;;;5125030;28;20039;-72
2022/07/15 12:29:35;;;;;;;7.18;0.20;;;23.00;48.30;;;;;;5086141;28;20351;-72
2022/07/15 12:32:06;;;;;;;7.93;0.22;;;23.00;48.30;;;;;;5088318;28;20119;-71
2022/07/15 12:40:09;;;;;;;4.53;0.17;;;23.10;48.40;;;;;;5107180;27;20359;-71
2022/07/15 12:45:22;;;;;;;2.53;0.15;;;23.10;48.70;;;;;;5085580;27;20940;-71
2022/07/15 12:48:09;;;;;;;0.65;0.10;;;23.10;48.30;;;;;;5083245;28;20381;-71
2022/07/15 12:53:38;;;;;;;5.03;0.10;;;23.10;48.60;;;;;;5125722;27;20739;-72
2022/07/15 12:56:06;;;;;;;3.13;0.20;;;23.10;48.50;;;;;;5114096;28;20051;-73
2022/07/15 12:58:35;;;;;;;3.13;0.25;;;23.10;48.70;;;;;;5107845;28;20059;-72
2022/07/15 13:01:09;;;;;;;5.18;0.85;;;23.10;48.80;;;;;;5106796;28;20043;-73
2022/07/15 13:03:36;;;;;;;8.07;0.20;;;23.10;48.70;;;;;;5105379;28;20592;-72
2022/07/15 13:06:01;;;;;;;0.77;0.20;;;23.10;48.70;;;;;;5106452;28;20047;-71
2022/07/15 13:08:30;;;;;;;6.63;0.20;;;23.10;48.70;;;;;;5107894;28;20039;-72
2022/07/15 13:10:59;;;;;;;5.00;0.10;;;23.10;48.80;;;;;;5106045;28;20051;-73
2022/07/15 13:13:27;;;;;;;2.40;0.20;;;23.10;48.90;;;;;;5096075;28;20613;-73
2022/07/15 13:15:53;;;;;;;3.10;0.30;;;23.20;49.10;;;;;;5096473;28;20125;-76
2022/07/15 13:18:19;;;;;;;3.17;0.10;;;23.20;49.10;;;;;;5106479;28;20429;-73
2022/07/15 13:20:46;;;;;;;5.65;1.17;;;23.20;49.00;;;;;;5101797;28;20076;-75
2022/07/15 13:23:12;;;;;;;5.13;0.15;;;23.20;49.10;;;;;;5101169;28;20047;-77
2022/07/15 13:25:40;;;;;;;1.67;0.10;;;23.20;48.50;;;;;;5105382;28;20115;-75
2022/07/15 13:28:08;;;;;;;2.08;0.10;;;23.20;48.50;;;;;;5106163;28;20050;-74
2022/07/15 13:30:35;;;;;;;0.70;0.00;;;23.10;48.70;;;;;;5137299;27;20486;-74
2022/07/15 13:33:07;;;;;;;2.42;0.25;;;23.20;49.00;;;;;;5104292;28;20043;-72
2022/07/15 13:35:33;;;;;;;4.95;0.20;;;23.20;49.10;;;;;;5105306;28;20035;-71
2022/07/15 13:37:59;;;;;;;4.93;0.20;;;23.20;49.10;;;;;;5105182;28;20117;-74
2022/07/15 13:40:24;;;;;;;2.90;0.13;;;23.20;48.80;;;;;;5120374;28;20160;-72
2022/07/15 13:42:51;;;;;;;4.70;0.20;;;23.10;48.60;;;;;;5104497;28;20479;-71
2022/07/15 13:45:17;;;;;;;2.95;0.10;;;23.10;48.70;;;;;;5104300;28;20093;-72
2022/07/15 13:47:43;;;;;;;4.13;0.17;;;23.20;48.50;;;;;;5104623;28;20135;-75
2022/07/15 13:52:57;;;;;;;3.13;0.10;;;23.20;48.50;;;;;;5102579;28;20074;-74
2022/07/15 13:55:24;;;;;;;7.82;0.28;;;23.10;48.40;;;;;;5111734;28;20757;-73
2022/07/15 13:57:51;;;;;;;2.42;0.10;;;23.10;48.30;;;;;;5125059;27;20399;-74
2022/07/15 14:00:21;;;;;;;2.70;0.05;;;23.10;48.30;;;;;;5107273;28;20032;-73
2022/07/15 14:02:48;;;;;;;5.18;0.28;;;23.10;48.40;;;;;;5105796;28;20039;-70
2022/07/15 14:05:14;;;;;;;4.60;0.47;;;23.10;48.40;;;;;;5091690;28;20036;-73
2022/07/15 14:07:40;;;;;;;3.17;0.10;;;23.10;48.40;;;;;;5092682;28;20032;-74
2022/07/15 14:10:07;;;;;;;7.07;0.10;;;23.10;48.50;;;;;;5087933;28;20506;-76